createdAt,value
2018-10-06T00:00:38.271Z,6.43
2018-10-06T00:03:05.278Z,8.53
2018-10-06T00:05:32.329Z,8.30
2018-10-06T00:08:00.708Z,8.80
2018-10-06T00:10:27.759Z,8.73
2018-10-06T00:12:55.112Z,6.20
2018-10-06T00:15:22.158Z,7.47
2018-10-06T00:17:49.107Z,6.63
2018-10-06T00:20:16.411Z,6.33
2018-10-06T00:22:44.022Z,6.60
2018-10-06T00:25:11.070Z,6.40
2018-10-06T00:27:38.127Z,6.23
2018-10-06T00:30:06.509Z,6.33
2018-10-06T00:32:33.855Z,7.63
2018-10-06T00:35:00.904Z,6.77
2018-10-06T00:37:28.055Z,7.93
2018-10-06T00:39:55.517Z,7.93
2018-10-06T00:42:22.569Z,7.83
2018-10-06T00:44:49.612Z,6.07
2018-10-06T00:47:16.745Z,5.87
2018-10-06T00:49:43.810Z,6.67
2018-10-06T00:52:10.865Z,7.47
2018-10-06T00:54:37.908Z,7.27
2018-10-06T00:57:05.057Z,6.60
2018-10-06T00:59:32.009Z,7.40
2018-10-06T01:01:59.054Z,7.03
2018-10-06T01:04:26.104Z,6.57
2018-10-06T01:06:53.252Z,7.13
2018-10-06T01:09:20.307Z,5.60
2018-10-06T01:11:47.350Z,6.50
2018-10-06T01:14:14.399Z,6.10
2018-10-06T01:16:41.453Z,7.40
2018-10-06T01:19:08.495Z,7.73
2018-10-06T01:21:37.147Z,6.33
2018-10-06T01:24:04.168Z,5.30
2018-10-06T01:26:31.178Z,7.93
2018-10-06T01:28:58.226Z,5.27
2018-10-06T01:31:25.377Z,6.43
2018-10-06T01:33:52.324Z,5.43
2018-10-06T01:36:19.374Z,5.70
2018-10-06T01:38:46.426Z,5.20
2018-10-06T01:41:13.471Z,6.03
2018-10-06T01:43:40.519Z,5.07
2018-10-06T01:46:07.572Z,5.80
2018-10-06T01:48:34.516Z,5.87
2018-10-06T01:51:01.659Z,6.50
2018-10-06T01:53:28.612Z,7.77
2018-10-06T01:55:56.536Z,6.30
2018-10-06T01:58:23.670Z,6.40
2018-10-06T02:00:50.618Z,8.13
2018-10-06T02:03:18.033Z,7.07
2018-10-06T02:05:45.185Z,9.90
2018-10-06T02:08:12.240Z,7.00
2018-10-06T02:10:39.590Z,7.40
2018-10-06T02:13:06.637Z,7.03
2018-10-06T02:15:34.095Z,7.40
2018-10-06T02:18:01.456Z,6.57
2018-10-06T02:20:28.500Z,6.93
2018-10-06T02:22:55.549Z,6.80
2018-10-06T02:25:23.830Z,6.70
2018-10-06T02:27:50.875Z,6.73
2018-10-06T02:30:18.052Z,6.97
2018-10-06T02:32:44.978Z,6.73
2018-10-06T02:35:12.064Z,9.07
2018-10-06T02:37:39.077Z,10.10
2018-10-06T02:40:06.123Z,6.43
2018-10-06T02:42:33.372Z,8.27
2018-10-06T02:45:00.426Z,8.00
2018-10-06T02:47:27.473Z,8.90
2018-10-06T02:50:12.438Z,7.30
2018-10-06T02:52:55.044Z,7.00
2018-10-06T02:55:22.043Z,7.30
2018-10-06T02:57:49.051Z,9.60
2018-10-06T03:00:16.553Z,9.10
2018-10-06T03:02:43.552Z,7.87
2018-10-06T03:05:12.043Z,8.00
2018-10-06T03:07:39.498Z,8.27
2018-10-06T03:10:06.542Z,8.47
2018-10-06T03:12:33.590Z,8.77
2018-10-06T03:15:00.646Z,9.67
2018-10-06T03:17:27.994Z,8.80
2018-10-06T03:19:55.043Z,8.80
2018-10-06T03:22:22.505Z,8.27
2018-10-06T03:24:49.556Z,8.17
2018-10-06T03:27:18.243Z,12.53
2018-10-06T03:29:45.286Z,11.93
2018-10-06T03:32:12.334Z,8.50
2018-10-06T03:34:40.822Z,10.03
2018-10-06T03:37:08.076Z,7.50
2018-10-06T03:39:35.228Z,7.40
2018-10-06T03:42:03.496Z,7.47
2018-10-06T03:44:30.546Z,8.50
2018-10-06T03:46:57.600Z,7.13
2018-10-06T03:49:26.122Z,6.63
2018-10-06T03:51:53.131Z,7.87
2018-10-06T03:54:20.175Z,9.07
2018-10-06T03:56:47.434Z,6.70
2018-10-06T03:59:14.476Z,8.57
2018-10-06T04:01:41.474Z,11.13
2018-10-06T04:04:08.779Z,6.43
2018-10-06T04:06:35.778Z,8.07
2018-10-06T04:09:02.881Z,6.93
2018-10-06T04:11:30.033Z,6.87
2018-10-06T04:13:58.303Z,6.13
2018-10-06T04:16:27.197Z,6.57
2018-10-06T04:18:54.250Z,8.30
2018-10-06T04:21:21.401Z,6.20
2018-10-06T04:23:48.443Z,6.33
2018-10-06T04:26:17.029Z,6.27
2018-10-06T04:28:44.083Z,7.30
2018-10-06T04:31:11.129Z,8.03
2018-10-06T04:33:57.757Z,7.10
2018-10-06T04:36:24.784Z,7.47
2018-10-06T04:38:51.830Z,6.97
2018-10-06T04:41:18.824Z,6.73
2018-10-06T04:43:45.825Z,7.27
2018-10-06T04:46:13.285Z,7.30
2018-10-06T04:48:40.339Z,6.33
2018-10-06T04:51:07.489Z,6.97
2018-10-06T04:53:34.532Z,7.60
2018-10-06T04:56:01.583Z,6.67
2018-10-06T04:58:28.575Z,6.87
2018-10-06T05:00:57.321Z,6.70
2018-10-06T05:03:24.639Z,8.20
2018-10-06T05:05:51.624Z,6.80
2018-10-06T05:08:18.667Z,7.17
2018-10-06T05:10:45.797Z,6.87
2018-10-06T05:13:12.867Z,12.20
2018-10-06T05:15:39.920Z,11.13
2018-10-06T05:18:06.965Z,37.17
2018-10-06T05:20:34.014Z,54.17
2018-10-06T05:23:01.067Z,17.60
2018-10-06T05:25:28.007Z,22.47
2018-10-06T05:27:55.061Z,46.37
2018-10-06T05:30:22.108Z,78.73
2018-10-06T05:32:49.114Z,41.23
2018-10-06T05:35:16.209Z,11.27
2018-10-06T05:37:44.993Z,8.00
2018-10-06T05:40:12.047Z,7.23
2018-10-06T05:43:01.436Z,6.97
2018-10-06T05:45:42.779Z,9.27
2018-10-06T05:48:22.394Z,7.80
2018-10-06T05:50:49.806Z,8.40
2018-10-06T05:53:16.791Z,8.20
2018-10-06T05:55:45.121Z,9.03
2018-10-06T05:58:12.111Z,7.67
2018-10-06T06:00:39.118Z,7.27
2018-10-06T06:03:07.026Z,8.37
2018-10-06T06:05:34.033Z,8.07
2018-10-06T06:08:00.979Z,7.57
2018-10-06T06:10:46.279Z,11.03
2018-10-06T06:13:13.304Z,9.70
2018-10-06T06:15:40.410Z,12.00
2018-10-06T06:18:07.401Z,12.30
2018-10-06T06:20:34.451Z,8.40
2018-10-06T06:23:02.163Z,9.97
2018-10-06T06:25:29.674Z,8.90
2018-10-06T06:27:56.766Z,9.83
2018-10-06T06:30:24.284Z,10.70
2018-10-06T06:32:51.338Z,10.10
2018-10-06T06:35:18.379Z,9.50
2018-10-06T06:37:45.638Z,10.63
2018-10-06T06:40:12.681Z,11.17
2018-10-06T06:42:39.731Z,9.30
2018-10-06T06:45:06.798Z,8.43
2018-10-06T06:47:33.828Z,9.83
2018-10-06T06:50:00.823Z,9.73
2018-10-06T06:52:29.465Z,9.27
2018-10-06T06:54:56.691Z,9.43
2018-10-06T06:57:24.172Z,10.87
2018-10-06T07:00:10.504Z,11.47
2018-10-06T07:02:55.778Z,9.27
2018-10-06T07:05:37.285Z,10.47
2018-10-06T07:08:04.387Z,9.50
2018-10-06T07:10:31.485Z,10.37
2018-10-06T07:12:58.484Z,12.53
2018-10-06T07:15:25.751Z,9.50
2018-10-06T07:17:52.787Z,12.00
2018-10-06T07:20:19.834Z,12.80
2018-10-06T07:22:46.891Z,10.90
2018-10-06T07:25:13.928Z,10.60
2018-10-06T07:27:40.981Z,13.53
2018-10-06T07:30:08.034Z,9.50
2018-10-06T07:32:35.896Z,9.37
2018-10-06T07:35:02.951Z,10.30
2018-10-06T07:37:30.200Z,9.43
2018-10-06T07:39:57.451Z,12.50
2018-10-06T07:42:24.603Z,9.77
2018-10-06T07:44:51.709Z,10.03
2018-10-06T07:47:18.706Z,9.27
2018-10-06T07:49:45.954Z,8.80
2018-10-06T07:52:13.009Z,9.30
2018-10-06T07:54:40.051Z,11.23
2018-10-06T07:57:07.100Z,7.97
2018-10-06T07:59:34.155Z,8.80
2018-10-06T08:02:01.198Z,10.97
2018-10-06T08:04:28.349Z,7.13
2018-10-06T08:06:55.541Z,8.97
2018-10-06T08:09:22.547Z,11.10
2018-10-06T08:11:49.799Z,6.60
2018-10-06T08:14:16.805Z,7.80
2018-10-06T08:16:43.795Z,9.30
2018-10-06T08:19:10.749Z,7.43
2018-10-06T08:21:37.790Z,7.53
2018-10-06T08:24:04.941Z,8.43
2018-10-06T08:26:32.205Z,12.57
2018-10-06T08:28:59.145Z,8.17
2018-10-06T08:31:26.197Z,6.37
2018-10-06T08:33:53.240Z,6.33
2018-10-06T08:36:20.290Z,5.73
2018-10-06T08:39:07.143Z,6.40
2018-10-06T08:41:53.017Z,7.70
2018-10-06T08:44:21.108Z,8.50
2018-10-06T08:46:48.117Z,8.80
2018-10-06T08:49:15.161Z,7.13
2018-10-06T08:51:42.310Z,8.13
2018-10-06T08:54:09.463Z,8.43
2018-10-06T08:56:36.730Z,6.60
2018-10-06T08:59:03.763Z,8.73
2018-10-06T09:01:30.914Z,6.70
2018-10-06T09:03:57.964Z,8.37
2018-10-06T09:06:25.114Z,8.70
2018-10-06T09:08:52.265Z,8.53
2018-10-06T09:11:19.211Z,9.75
2018-10-06T09:13:46.470Z,7.80
2018-10-06T09:16:13.620Z,7.50
2018-10-06T09:18:40.562Z,8.32
2018-10-06T09:21:27.871Z,7.12
2018-10-06T09:23:54.936Z,7.50
2018-10-06T09:26:21.983Z,7.65
2018-10-06T09:28:48.928Z,8.27
2018-10-06T09:31:15.977Z,7.15
2018-10-06T09:33:44.500Z,8.82
2018-10-06T09:36:11.508Z,8.25
2018-10-06T09:38:38.498Z,7.62
2018-10-06T09:41:09.533Z,8.15
2018-10-06T09:43:36.888Z,7.03
2018-10-06T09:46:03.900Z,7.25
2018-10-06T09:48:31.052Z,10.00
2018-10-06T09:50:58.108Z,8.20
2018-10-06T09:53:25.155Z,7.72
2018-10-06T09:55:53.253Z,8.80
2018-10-06T09:58:20.479Z,6.68
2018-10-06T10:00:47.529Z,7.62
2018-10-06T10:03:19.488Z,7.32
2018-10-06T10:05:46.648Z,8.13
2018-10-06T10:08:16.020Z,8.43
2018-10-06T10:10:42.995Z,7.93
2018-10-06T10:13:10.903Z,7.97
2018-10-06T10:15:55.711Z,7.87
2018-10-06T10:18:22.990Z,8.35
2018-10-06T10:20:50.033Z,8.55
2018-10-06T10:23:18.971Z,10.02
2018-10-06T10:25:46.176Z,8.75
2018-10-06T10:28:13.787Z,12.68
2018-10-06T10:30:40.934Z,9.38
2018-10-06T10:33:08.135Z,7.82
2018-10-06T10:35:37.468Z,8.70
2018-10-06T10:38:04.485Z,9.40
2018-10-06T10:40:31.539Z,15.00
2018-10-06T10:43:00.016Z,11.23
2018-10-06T10:45:27.310Z,13.15
2018-10-06T10:47:54.840Z,14.48
2018-10-06T10:50:23.107Z,12.70
2018-10-06T10:52:50.258Z,11.73
2018-10-06T10:55:17.307Z,12.68
2018-10-06T10:57:44.467Z,13.90
2018-10-06T11:00:12.677Z,10.98
2018-10-06T11:02:39.684Z,10.13
2018-10-06T11:05:06.735Z,12.60
2018-10-06T11:07:33.983Z,11.18
2018-10-06T11:10:01.694Z,8.90
2018-10-06T11:12:29.514Z,10.93
2018-10-06T11:14:56.664Z,10.13
2018-10-06T11:17:25.109Z,8.68
2018-10-06T11:19:53.157Z,15.75
2018-10-06T11:22:20.721Z,9.32
2018-10-06T11:24:48.480Z,10.95
2018-10-06T11:27:16.521Z,9.48
2018-10-06T11:29:43.729Z,10.63
2018-10-06T11:32:11.540Z,10.32
2018-10-06T11:34:39.809Z,12.43
2018-10-06T11:37:08.382Z,11.20
2018-10-06T11:39:36.536Z,11.20
2018-10-06T11:42:04.338Z,9.13
2018-10-06T11:44:32.454Z,11.40
2018-10-06T11:47:00.789Z,10.57
2018-10-06T11:49:29.118Z,11.43
2018-10-06T11:51:57.585Z,8.50
2018-10-06T11:54:26.139Z,9.65
2018-10-06T11:56:54.257Z,7.43
2018-10-06T11:59:24.481Z,8.82
2018-10-06T12:01:54.629Z,10.98
2018-10-06T12:04:23.057Z,9.57
2018-10-06T12:06:52.851Z,9.38
2018-10-06T12:09:20.989Z,8.85
2018-10-06T12:11:49.461Z,8.90
2018-10-06T12:14:19.834Z,10.05
2018-10-06T12:16:48.954Z,7.75
2018-10-06T12:19:16.535Z,16.10
2018-10-06T12:21:43.944Z,35.40
2018-10-06T12:24:13.043Z,17.37
2018-10-06T12:26:43.883Z,7.72
2018-10-06T12:29:12.829Z,7.53
2018-10-06T12:31:41.709Z,10.15
2018-10-06T12:34:10.655Z,7.47
2018-10-06T12:36:39.141Z,8.35
2018-10-06T12:39:12.582Z,8.57
2018-10-06T12:41:41.162Z,8.77
2018-10-06T12:44:11.342Z,7.80
2018-10-06T12:46:39.833Z,7.78
2018-10-06T12:49:11.223Z,7.93
2018-10-06T12:51:40.075Z,7.65
2018-10-06T12:54:10.171Z,10.05
2018-10-06T12:56:37.591Z,6.72
2018-10-06T12:59:08.227Z,5.62
2018-10-06T13:01:37.515Z,6.25
2018-10-06T13:04:05.964Z,5.93
2018-10-06T13:06:34.276Z,6.10
2018-10-06T13:09:01.288Z,7.95
2018-10-06T13:11:28.801Z,8.13
2018-10-06T13:13:57.664Z,13.10
2018-10-06T13:16:25.142Z,6.18
2018-10-06T13:18:52.456Z,9.38
2018-10-06T13:21:20.064Z,9.35
2018-10-06T13:23:48.390Z,6.87
2018-10-06T13:26:15.752Z,6.35
2018-10-06T13:28:43.210Z,6.70
2018-10-06T13:31:10.870Z,9.15
2018-10-06T13:33:38.224Z,9.93
2018-10-06T13:36:05.375Z,7.20
2018-10-06T13:38:33.140Z,9.95
2018-10-06T13:41:00.291Z,6.53
2018-10-06T13:43:27.652Z,9.20
2018-10-06T13:45:55.208Z,11.20
2018-10-06T13:48:22.569Z,7.05
2018-10-06T13:50:49.818Z,5.70
2018-10-06T13:53:17.227Z,7.15
2018-10-06T13:55:44.222Z,9.90
2018-10-06T13:58:12.085Z,9.00
2018-10-06T14:00:39.139Z,10.60
2018-10-06T14:03:06.186Z,11.35
2018-10-06T14:05:33.747Z,6.45
2018-10-06T14:08:01.104Z,13.43
2018-10-06T14:10:28.356Z,10.93
2018-10-06T14:12:55.925Z,9.00
2018-10-06T14:15:23.784Z,10.45
2018-10-06T14:17:51.795Z,6.47
2018-10-06T14:20:36.537Z,9.98
2018-10-06T14:23:25.940Z,8.82
2018-10-06T14:25:53.206Z,9.45
2018-10-06T14:28:20.500Z,8.77
2018-10-06T14:30:47.759Z,11.88
2018-10-06T14:33:15.057Z,8.90
2018-10-06T14:35:42.259Z,8.43
2018-10-06T14:38:10.231Z,8.07
2018-10-06T14:40:37.389Z,11.85
2018-10-06T14:43:06.785Z,10.23
2018-10-06T14:45:34.046Z,11.23
2018-10-06T14:48:01.196Z,11.02
2018-10-06T14:50:28.239Z,9.95
2018-10-06T14:52:55.498Z,5.68
2018-10-06T14:55:22.744Z,9.00
2018-10-06T14:57:50.653Z,10.15
2018-10-06T15:00:19.045Z,8.88
2018-10-06T15:02:47.542Z,7.97
2018-10-06T15:05:32.473Z,10.70
2018-10-06T15:07:59.492Z,6.70
2018-10-06T15:10:27.770Z,7.70
2018-10-06T15:12:55.328Z,8.65
2018-10-06T15:15:24.016Z,6.50
2018-10-06T15:17:52.528Z,9.07
2018-10-06T15:20:19.898Z,8.65
2018-10-06T15:23:06.755Z,7.03
2018-10-06T15:25:33.926Z,7.00
2018-10-06T15:28:01.130Z,8.15
2018-10-06T15:30:29.595Z,13.43
2018-10-06T15:32:56.962Z,10.43
2018-10-06T15:35:26.042Z,7.78
2018-10-06T15:37:54.941Z,10.27
2018-10-06T15:40:25.610Z,10.10
2018-10-06T15:42:54.168Z,7.93
2018-10-06T15:45:22.326Z,8.75
2018-10-06T15:47:50.925Z,10.43
2018-10-06T15:50:19.050Z,33.50
2018-10-06T15:52:47.477Z,7.47
2018-10-06T15:55:15.407Z,31.62
2018-10-06T15:57:57.232Z,33.08
2018-10-06T16:00:47.793Z,11.35
2018-10-06T16:03:33.957Z,9.75
2018-10-06T16:06:22.354Z,7.87
2018-10-06T16:08:51.061Z,8.32
2018-10-06T16:11:19.850Z,10.02
2018-10-06T16:13:47.891Z,10.38
2018-10-06T16:16:17.572Z,8.25
2018-10-06T16:18:44.918Z,10.45
2018-10-06T16:21:13.549Z,8.93
2018-10-06T16:23:40.899Z,9.13
2018-10-06T16:26:09.309Z,15.30
2018-10-06T16:28:37.751Z,9.48
2018-10-06T16:31:06.900Z,8.65
2018-10-06T16:33:35.560Z,8.68
2018-10-06T16:36:03.646Z,10.27
2018-10-06T16:38:31.381Z,9.45
2018-10-06T16:40:59.710Z,8.00
2018-10-06T16:43:27.450Z,9.50
2018-10-06T16:46:16.456Z,12.17
2018-10-06T16:48:46.100Z,13.03
2018-10-06T16:51:14.705Z,10.90
2018-10-06T16:53:43.007Z,12.93
2018-10-06T16:56:11.731Z,9.30
2018-10-06T16:58:44.373Z,9.63
2018-10-06T17:01:12.913Z,10.48
2018-10-06T17:03:41.261Z,10.88
2018-10-06T17:06:32.616Z,8.07
2018-10-06T17:09:19.798Z,10.43
2018-10-06T17:11:47.834Z,8.98
2018-10-06T17:14:16.126Z,13.40
2018-10-06T17:16:45.426Z,9.73
2018-10-06T17:19:14.322Z,10.83
2018-10-06T17:21:42.864Z,14.57
2018-10-06T17:24:10.032Z,8.93
2018-10-06T17:26:37.737Z,11.17
2018-10-06T17:29:06.563Z,13.27
2018-10-06T17:31:35.089Z,8.47
2018-10-06T17:34:02.504Z,10.00
2018-10-06T17:36:30.700Z,9.50
2018-10-06T17:38:57.933Z,8.27
2018-10-06T17:41:26.560Z,10.53
2018-10-06T17:43:56.170Z,10.70
2018-10-06T17:46:23.175Z,8.07
2018-10-06T17:48:50.226Z,8.10
2018-10-06T17:51:18.398Z,8.00
2018-10-06T17:53:45.493Z,16.57
2018-10-06T17:56:13.010Z,10.53
2018-10-06T17:58:42.487Z,9.27
2018-10-06T18:01:10.425Z,9.90
2018-10-06T18:03:39.530Z,9.17
2018-10-06T18:06:06.636Z,8.13
2018-10-06T18:08:33.680Z,9.30
2018-10-06T18:11:02.575Z,11.97
2018-10-06T18:13:30.643Z,14.10
2018-10-06T18:15:58.101Z,10.70
2018-10-06T18:18:25.158Z,8.93
2018-10-06T18:20:53.165Z,13.50
2018-10-06T18:23:20.169Z,11.23
2018-10-06T18:25:48.190Z,11.10
2018-10-06T18:28:35.179Z,13.47
2018-10-06T18:31:21.620Z,10.57
2018-10-06T18:34:00.786Z,11.83
2018-10-06T18:36:28.762Z,9.40
2018-10-06T18:38:55.607Z,9.77
2018-10-06T18:41:23.168Z,10.27
2018-10-06T18:43:50.674Z,14.57
2018-10-06T18:46:18.742Z,10.30
2018-10-06T18:48:46.509Z,11.73
2018-10-06T18:51:14.145Z,10.57
2018-10-06T18:53:41.782Z,12.77
2018-10-06T18:56:09.056Z,10.17
2018-10-06T18:58:36.192Z,14.27
2018-10-06T19:01:06.670Z,11.47
2018-10-06T19:03:35.018Z,10.77
2018-10-06T19:06:02.601Z,10.10
2018-10-06T19:08:31.278Z,11.10
2018-10-06T19:11:01.565Z,15.83
2018-10-06T19:13:30.593Z,13.80
2018-10-06T19:15:58.571Z,10.33
2018-10-06T19:18:26.089Z,11.30
2018-10-06T19:20:54.264Z,10.10
2018-10-06T19:23:21.416Z,13.47
2018-10-06T19:25:48.824Z,10.30
2018-10-06T19:28:16.025Z,12.00
2018-10-06T19:30:44.441Z,12.57
2018-10-06T19:33:11.970Z,12.77
2018-10-06T19:35:39.015Z,12.67
2018-10-06T19:38:06.417Z,11.07
2018-10-06T19:40:33.624Z,11.00
2018-10-06T19:43:00.672Z,9.83
2018-10-06T19:45:27.824Z,12.23
2018-10-06T19:47:55.282Z,12.67
2018-10-06T19:50:22.335Z,13.00
2018-10-06T19:52:49.584Z,10.60
2018-10-06T19:55:16.838Z,10.63
2018-10-06T19:57:44.294Z,24.00
2018-10-06T20:00:13.433Z,23.53
2018-10-06T20:02:40.440Z,19.20
2018-10-06T20:05:08.461Z,34.17
2018-10-06T20:07:35.464Z,11.73
2018-10-06T20:10:19.301Z,16.47
2018-10-06T20:13:06.054Z,19.90
2018-10-06T20:15:33.168Z,12.63
2018-10-06T20:18:00.318Z,11.60
2018-10-06T20:20:27.365Z,13.47
2018-10-06T20:22:54.410Z,10.87
2018-10-06T20:25:22.484Z,12.00
2018-10-06T20:27:49.537Z,10.07
2018-10-06T20:30:16.624Z,11.97
2018-10-06T20:32:43.638Z,13.10
2018-10-06T20:35:10.779Z,18.10
2018-10-06T20:37:37.806Z,12.23
2018-10-06T20:40:05.141Z,16.47
2018-10-06T20:42:32.232Z,16.97
2018-10-06T20:44:59.227Z,12.77
2018-10-06T20:47:26.227Z,13.40
2018-10-06T20:49:53.281Z,14.33
2018-10-06T20:52:20.325Z,15.43
2018-10-06T20:54:47.373Z,14.33
2018-10-06T20:57:14.430Z,16.07
2018-10-06T20:59:43.212Z,15.17
2018-10-06T21:02:13.052Z,13.87
2018-10-06T21:04:40.380Z,16.30
2018-10-06T21:07:07.432Z,14.43
2018-10-06T21:09:34.732Z,13.33
2018-10-06T21:12:01.750Z,20.93
2018-10-06T21:14:28.786Z,15.43
2018-10-06T21:16:55.936Z,15.33
2018-10-06T21:19:23.287Z,16.53
2018-10-06T21:21:50.335Z,17.40
2018-10-06T21:24:17.393Z,13.83
2018-10-06T21:26:46.114Z,14.90
2018-10-06T21:29:14.016Z,13.87
2018-10-06T21:31:40.993Z,14.80
2018-10-06T21:34:07.986Z,13.30
2018-10-06T21:36:35.296Z,14.80
2018-10-06T21:39:02.338Z,18.70
2018-10-06T21:41:29.391Z,20.87
2018-10-06T21:43:58.078Z,16.47
2018-10-06T21:46:25.129Z,16.30
2018-10-06T21:48:52.173Z,19.53
2018-10-06T21:51:19.222Z,17.60
2018-10-06T21:53:46.276Z,17.43
2018-10-06T21:56:13.318Z,16.53
2018-10-06T21:58:40.513Z,16.50
2018-10-06T22:01:07.565Z,18.77
2018-10-06T22:03:34.597Z,20.63
2018-10-06T22:06:02.642Z,16.17
2018-10-06T22:08:29.794Z,17.87
2018-10-06T22:10:56.837Z,16.67
2018-10-06T22:13:23.886Z,20.50
2018-10-06T22:15:50.940Z,15.30
2018-10-06T22:18:19.724Z,18.83
2018-10-06T22:20:46.778Z,16.53
2018-10-06T22:23:13.929Z,20.67
2018-10-06T22:25:43.279Z,17.27
2018-10-06T22:28:10.426Z,19.17
2018-10-06T22:30:37.423Z,14.70
2018-10-06T22:33:04.473Z,17.40
2018-10-06T22:35:31.527Z,15.87
2018-10-06T22:37:58.569Z,15.33
2018-10-06T22:40:25.621Z,16.73
2018-10-06T22:42:52.673Z,16.60
2018-10-06T22:45:20.894Z,13.60
2018-10-06T22:47:48.401Z,17.93
2018-10-06T22:50:15.450Z,15.00
2018-10-06T22:52:43.154Z,18.37
2018-10-06T22:55:11.806Z,19.37
2018-10-06T22:57:38.851Z,16.50
2018-10-06T23:00:05.896Z,17.13
2018-10-06T23:02:34.072Z,19.73
2018-10-06T23:05:01.024Z,16.30
2018-10-06T23:07:28.067Z,14.27
2018-10-06T23:09:56.555Z,16.23
2018-10-06T23:12:23.598Z,16.93
2018-10-06T23:14:53.104Z,13.83
2018-10-06T23:17:20.097Z,13.30
2018-10-06T23:19:47.099Z,15.00
2018-10-06T23:22:14.659Z,14.90
2018-10-06T23:24:41.611Z,18.50
2018-10-06T23:27:08.761Z,18.23
2018-10-06T23:29:36.835Z,18.53
2018-10-06T23:32:03.878Z,18.67
2018-10-06T23:34:30.926Z,11.57
2018-10-06T23:36:57.982Z,22.27
2018-10-06T23:39:24.969Z,18.23
2018-10-06T23:41:52.073Z,13.50
2018-10-06T23:44:19.127Z,16.67
2018-10-06T23:46:46.170Z,19.00
2018-10-06T23:49:13.221Z,19.73
2018-10-06T23:51:42.388Z,14.20
2018-10-06T23:54:09.466Z,18.60
2018-10-06T23:56:36.515Z,17.20
2018-10-06T23:59:03.569Z,21.40
